Time;durP1;ratioP1;P1;durP2;ratioP2;P2;SDS_P1;SDS_P2;PMS_P1;PMS_P2;Temp;Humidity;BMP_temperature;BMP_pressure;BME280_temperature;BME280_humidity;BME280_pressure;Samples;Min_cycle;Max_cycle;Signal;HPM_P1;HPM_P2
2023/04/07 00:02:05;;;;;;;45.57;21.13;;;;;;;3.42;91.50;100083.22;4223288;28;20239;-65
2023/04/07 00:04:32;;;;;;;52.87;21.37;;;;;;;3.48;91.34;100081.91;4238676;28;20356;-65
2023/04/07 00:06:59;;;;;;;44.63;22.07;;;;;;;3.44;91.14;100083.94;4239808;28;20377;-65
2023/04/07 00:09:25;;;;;;;49.23;22.97;;;;;;;3.39;91.49;100075.41;4229951;28;20314;-65
2023/04/07 00:11:52;;;;;;;56.47;22.37;;;;;;;3.48;91.67;100071.19;4217213;28;20766;-65
2023/04/07 00:14:19;;;;;;;52.57;22.43;;;;;;;3.46;91.72;100075.84;4213370;28;20228;-66
2023/04/07 00:16:45;;;;;;;53.57;23.23;;;;;;;3.42;91.94;100080.56;4231081;28;20262;-63
2023/04/07 00:19:12;;;;;;;58.53;23.77;;;;;;;3.52;91.60;100074.50;4228107;28;20235;-64
2023/04/07 00:21:38;;;;;;;53.93;24.37;;;;;;;3.56;91.48;100071.50;4227985;28;20235;-64
2023/04/07 00:24:05;;;;;;;62.20;23.77;;;;;;;3.48;91.42;100074.75;4225336;28;20227;-63
2023/04/07 00:26:31;;;;;;;58.83;24.77;;;;;;;3.55;91.50;100069.78;4228184;28;22010;-65
2023/04/07 00:28:58;;;;;;;59.10;23.70;;;;;;;3.49;91.80;100072.91;4224209;28;20276;-65
2023/04/07 00:31:25;;;;;;;63.30;24.33;;;;;;;3.52;92.12;100071.84;4228872;28;20611;-66
2023/04/07 00:33:52;;;;;;;66.67;24.57;;;;;;;3.54;91.84;100072.59;4225023;28;20352;-64
2023/04/07 00:36:19;;;;;;;59.53;25.10;;;;;;;3.52;92.03;100063.81;4224598;28;20430;-65
2023/04/07 00:38:46;;;;;;;61.40;24.60;;;;;;;3.55;92.14;100071.63;4225354;28;20231;-65
2023/04/07 00:41:12;;;;;;;62.77;24.97;;;;;;;3.71;92.56;100068.69;4226521;28;20227;-66
2023/04/07 00:43:39;;;;;;;64.93;25.20;;;;;;;3.74;91.54;100058.59;4229931;28;20445;-64
2023/04/07 00:46:06;;;;;;;63.67;25.73;;;;;;;3.79;91.56;100061.81;4216070;28;20235;-64
2023/04/07 00:48:32;;;;;;;64.73;25.57;;;;;;;3.71;91.63;100061.53;4222940;28;21692;-63
2023/04/07 00:50:59;;;;;;;62.27;25.40;;;;;;;3.79;91.88;100061.81;4206980;28;20311;-64
2023/04/07 00:53:25;;;;;;;57.47;24.17;;;;;;;3.75;91.92;100049.59;4227345;28;22379;-64
2023/04/07 00:55:52;;;;;;;66.57;24.90;;;;;;;3.78;91.67;100049.38;4225729;28;20302;-66
2023/04/07 00:58:19;;;;;;;61.67;25.30;;;;;;;3.86;91.72;100050.66;4225866;28;21193;-64
2023/04/07 01:00:55;;;;;;;62.20;24.43;;;;;;;3.80;91.69;100049.28;4225413;28;20231;-65
2023/04/07 01:03:31;;;;;;;52.53;23.77;;;;;;;3.88;91.63;100043.34;4215823;28;20419;-66
2023/04/07 01:06:01;;;;;;;50.80;22.10;;;;;;;3.79;91.39;100045.75;4226759;28;20231;-66
2023/04/07 01:08:53;;;;;;;54.77;23.70;;;;;;;3.86;91.86;100042.63;4230439;28;20235;-66
2023/04/07 01:11:31;;;;;;;61.00;24.10;;;;;;;3.83;91.55;100043.69;4228004;28;20231;-66
2023/04/07 01:13:59;;;;;;;60.97;24.53;;;;;;;3.83;91.84;100049.06;4219273;28;23650;-66
2023/04/07 01:16:30;;;;;;;60.10;24.70;;;;;;;3.89;91.63;100045.06;4210000;28;23961;-64
2023/04/07 01:19:01;;;;;;;55.47;24.30;;;;;;;3.74;92.21;100044.38;4209833;28;20270;-63
2023/04/07 01:21:33;;;;;;;57.23;24.70;;;;;;;3.83;92.15;100043.69;4218677;28;20877;-66
2023/04/07 01:24:18;;;;;;;63.30;24.93;;;;;;;3.91;92.04;100038.63;4201439;28;23170;-66
2023/04/07 01:26:46;;;;;;;70.60;26.60;;;;;;;3.90;92.13;100046.75;4220783;28;21052;-64
2023/04/07 01:29:25;;;;;;;75.70;28.17;;;;;;;3.96;92.08;100035.63;4226969;28;20239;-65
2023/04/07 01:31:54;;;;;;;65.20;26.37;;;;;;;4.03;91.75;100042.22;4229434;28;21381;-64
2023/04/07 01:34:23;;;;;;;71.87;28.20;;;;;;;4.04;91.80;100033.19;4203163;28;20238;-63
2023/04/07 01:36:50;;;;;;;72.53;28.67;;;;;;;4.06;91.50;100033.09;4222174;28;21117;-65
2023/04/07 01:39:17;;;;;;;77.17;29.03;;;;;;;4.06;91.87;100036.59;4225145;28;25969;-65
2023/04/07 01:41:44;;;;;;;74.50;26.93;;;;;;;4.00;92.21;100028.19;4225673;28;20607;-65
2023/04/07 01:44:11;;;;;;;78.53;29.23;;;;;;;4.00;92.17;100033.56;4219984;28;20296;-63
2023/04/07 01:46:37;;;;;;;70.83;28.70;;;;;;;4.15;92.30;100034.22;4219049;28;20234;-64
2023/04/07 01:49:04;;;;;;;71.47;27.93;;;;;;;4.11;92.02;100026.44;4225884;28;21714;-65
2023/04/07 01:51:32;;;;;;;74.17;28.80;;;;;;;4.17;92.13;100030.44;4228470;28;20408;-65
2023/04/07 01:53:59;;;;;;;75.40;29.17;;;;;;;4.12;92.38;100033.47;4222775;28;22011;-64
2023/04/07 01:56:26;;;;;;;70.27;28.07;;;;;;;4.18;92.15;100028.63;4214290;28;22227;-62
2023/04/07 01:58:52;;;;;;;68.67;28.77;;;;;;;4.15;92.32;100031.53;4226035;28;20242;-65
2023/04/07 02:01:19;;;;;;;71.07;29.40;;;;;;;4.06;92.79;100033.94;4226645;28;20231;-65
2023/04/07 02:03:52;;;;;;;67.30;28.27;;;;;;;4.16;92.58;100033.25;4216329;28;20271;-65
2023/04/07 02:06:22;;;;;;;73.73;29.47;;;;;;;4.30;92.54;100025.00;4229693;28;22973;-64
2023/04/07 02:08:51;;;;;;;66.73;28.73;;;;;;;4.24;92.52;100020.97;4211032;28;20239;-65
2023/04/07 02:11:20;;;;;;;72.07;29.03;;;;;;;4.28;92.83;100021.59;4210429;28;21851;-63
2023/04/07 02:13:48;;;;;;;68.30;29.20;;;;;;;4.40;92.80;100026.03;4214827;28;20253;-65
2023/04/07 02:16:15;;;;;;;71.10;30.37;;;;;;;4.50;92.42;100025.28;4226406;28;20841;-64
2023/04/07 02:18:43;;;;;;;72.17;29.73;;;;;;;4.41;92.54;100035.78;4216650;28;22250;-64
2023/04/07 02:21:11;;;;;;;68.83;28.20;;;;;;;4.42;92.41;100026.75;4230931;28;20229;-65
2023/04/07 02:23:37;;;;;;;72.87;29.83;;;;;;;4.41;92.18;100033.09;4204051;28;20225;-65
2023/04/07 02:26:04;;;;;;;75.13;30.80;;;;;;;4.56;92.23;100023.00;4221897;28;22675;-65
2023/04/07 02:28:31;;;;;;;69.10;28.33;;;;;;;4.49;92.41;100023.59;4229870;28;20425;-64
2023/04/07 02:30:57;;;;;;;86.47;29.57;;;;;;;4.47;92.46;100026.38;4229300;28;20239;-64
2023/04/07 02:33:24;;;;;;;80.80;31.17;;;;;;;4.48;92.32;100027.25;4224948;28;20242;-66
2023/04/07 02:35:50;;;;;;;77.27;32.43;;;;;;;4.60;92.53;100027.16;4227531;28;20279;-64
2023/04/07 02:38:17;;;;;;;73.97;30.30;;;;;;;4.54;92.52;100024.94;4235026;28;21693;-65
2023/04/07 02:40:43;;;;;;;84.77;31.97;;;;;;;4.53;92.37;100017.03;4229609;28;20330;-65
2023/04/07 02:43:10;;;;;;;85.67;33.20;;;;;;;4.38;92.98;100021.75;4224508;28;22473;-65
2023/04/07 02:45:36;;;;;;;80.63;31.00;;;;;;;4.43;92.58;100019.56;4230819;28;20311;-66
2023/04/07 02:48:03;;;;;;;79.27;31.30;;;;;;;4.55;92.73;100021.28;4230971;28;20338;-65
2023/04/07 02:50:30;;;;;;;85.20;31.67;;;;;;;4.51;92.66;100019.84;4230467;28;20235;-66
2023/04/07 02:52:56;;;;;;;81.47;32.20;;;;;;;4.60;93.20;100018.25;4226682;28;20333;-64
2023/04/07 02:55:23;;;;;;;88.87;33.80;;;;;;;4.57;92.71;100018.50;4210396;28;20628;-64
2023/04/07 02:57:50;;;;;;;85.87;32.83;;;;;;;4.66;92.70;100020.44;4231843;28;20326;-65
2023/04/07 03:00:16;;;;;;;96.60;35.33;;;;;;;4.69;92.66;100027.41;4232243;28;20323;-64
2023/04/07 03:02:43;;;;;;;89.07;34.30;;;;;;;4.71;92.67;100022.78;4224958;28;20354;-62
2023/04/07 03:05:10;;;;;;;80.37;33.17;;;;;;;4.76;92.38;100028.63;4231818;28;20235;-63
2023/04/07 03:07:36;;;;;;;78.57;32.57;;;;;;;4.74;92.60;100027.91;4222094;28;20376;-65
2023/04/07 03:10:03;;;;;;;93.37;35.43;;;;;;;4.68;92.45;100028.41;4228616;28;20544;-64
2023/04/07 03:12:30;;;;;;;91.90;34.53;;;;;;;4.56;92.73;100020.31;4227479;28;20342;-66
2023/04/07 03:14:56;;;;;;;87.20;35.33;;;;;;;4.64;92.60;100032.28;4229551;28;20948;-64
2023/04/07 03:17:23;;;;;;;83.67;34.37;;;;;;;4.73;92.88;100027.03;4231654;28;20283;-64
2023/04/07 03:19:50;;;;;;;81.47;33.33;;;;;;;4.73;92.86;100029.72;4228503;28;20308;-65
2023/04/07 03:22:17;;;;;;;92.67;34.87;;;;;;;4.82;92.77;100027.28;4230252;28;20547;-63
2023/04/07 03:24:43;;;;;;;76.47;33.23;;;;;;;4.82;92.37;100029.97;4207285;28;20398;-63
2023/04/07 03:27:10;;;;;;;75.30;31.43;;;;;;;4.76;92.57;100025.94;4235197;28;20310;-64
2023/04/07 03:29:36;;;;;;;86.60;34.57;;;;;;;4.86;92.44;100032.31;4234407;28;20560;-65
2023/04/07 03:32:03;;;;;;;86.13;34.37;;;;;;;4.76;92.71;100032.19;4233422;28;20228;-63
2023/04/07 03:34:30;;;;;;;82.00;34.70;;;;;;;4.83;92.60;100029.00;4226718;28;20510;-63
2023/04/07 03:36:56;;;;;;;81.37;33.77;;;;;;;4.80;92.67;100022.06;4231367;28;20245;-63
2023/04/07 03:39:23;;;;;;;91.33;34.50;;;;;;;4.75;93.04;100030.47;4233086;28;20431;-63
2023/04/07 03:41:50;;;;;;;97.67;36.93;;;;;;;4.76;92.91;100029.50;4229456;28;23588;-64
2023/04/07 03:44:17;;;;;;;91.70;35.07;;;;;;;4.76;92.81;100024.13;4204472;28;20288;-66
2023/04/07 03:46:44;;;;;;;92.30;35.53;;;;;;;4.87;92.79;100025.97;4230522;28;21188;-64
2023/04/07 03:49:11;;;;;;;84.23;35.13;;;;;;;4.92;92.94;100034.50;4231680;28;20409;-63
2023/04/07 03:51:37;;;;;;;96.03;35.63;;;;;;;5.00;92.60;100027.66;4228203;28;20236;-65
2023/04/07 03:54:04;;;;;;;89.27;35.10;;;;;;;4.94;92.42;100028.16;4233890;28;20782;-63
2023/04/07 03:56:31;;;;;;;85.73;36.23;;;;;;;4.86;92.55;100034.16;4227379;28;20302;-64
2023/04/07 03:58:57;;;;;;;90.90;36.47;;;;;;;4.85;92.83;100035.13;4227606;28;20428;-66
2023/04/07 04:01:24;;;;;;;87.27;37.20;;;;;;;4.93;92.86;100027.31;4223666;28;20324;-63
2023/04/07 04:03:50;;;;;;;97.30;38.63;;;;;;;4.96;92.98;100023.53;4231862;28;20231;-66
2023/04/07 04:06:18;;;;;;;89.13;35.57;;;;;;;4.92;92.75;100021.09;4228908;28;21884;-64
2023/04/07 04:08:44;;;;;;;93.93;36.87;;;;;;;5.03;92.64;100025.59;4225183;28;20316;-64
2023/04/07 04:11:11;;;;;;;92.27;36.13;;;;;;;4.95;92.77;100030.72;4223166;28;20337;-64
2023/04/07 04:13:37;;;;;;;101.27;38.47;;;;;;;4.90;92.87;100031.09;4207924;28;21564;-63
2023/04/07 04:16:04;;;;;;;95.83;37.53;;;;;;;4.93;93.09;100027.31;4227224;28;20350;-62
2023/04/07 04:18:31;;;;;;;99.00;36.43;;;;;;;4.90;93.18;100022.19;4226551;28;20244;-65
2023/04/07 04:20:57;;;;;;;90.77;36.90;;;;;;;4.99;93.30;100023.28;4219049;28;21264;-65
2023/04/07 04:23:24;;;;;;;89.40;36.73;;;;;;;5.08;93.29;100038.66;4224534;28;20299;-63
2023/04/07 04:25:50;;;;;;;90.00;38.13;;;;;;;5.02;93.01;100039.13;4227748;28;26279;-65
2023/04/07 04:28:17;;;;;;;86.83;36.40;;;;;;;5.00;92.92;100035.72;4224826;28;20238;-63
2023/04/07 04:30:43;;;;;;;86.57;37.03;;;;;;;5.00;92.95;100035.72;4224968;28;21089;-66
2023/04/07 04:33:10;;;;;;;93.10;36.80;;;;;;;5.11;92.96;100041.09;4220598;28;20261;-65
2023/04/07 04:35:37;;;;;;;92.77;37.97;;;;;;;5.05;93.05;100034.38;4222545;28;20247;-64
2023/04/07 04:38:03;;;;;;;89.90;37.13;;;;;;;5.15;92.83;100042.56;4226019;28;20404;-62
2023/04/07 04:40:30;;;;;;;91.90;37.90;;;;;;;5.18;92.58;100049.50;4228394;28;20322;-64
2023/04/07 04:42:57;;;;;;;87.73;36.57;;;;;;;5.14;92.76;100046.22;4224999;28;20305;-65
2023/04/07 04:45:23;;;;;;;84.57;35.63;;;;;;;5.05;93.32;100042.44;4228270;28;20236;-64
2023/04/07 04:47:50;;;;;;;83.93;35.30;;;;;;;5.20;93.08;100047.56;4224900;28;20361;-63
2023/04/07 04:50:17;;;;;;;83.63;34.73;;;;;;;5.37;93.02;100049.75;4229053;28;20982;-65
2023/04/07 04:52:43;;;;;;;82.00;35.97;;;;;;;5.32;92.57;100051.09;4229222;28;20250;-62
2023/04/07 04:55:10;;;;;;;82.33;35.43;;;;;;;5.28;92.28;100055.00;4231536;28;20236;-64
2023/04/07 04:57:39;;;;;;;86.40;35.17;;;;;;;5.34;92.69;100052.66;4213787;28;22260;-62
2023/04/07 05:00:06;;;;;;;94.40;37.30;;;;;;;5.32;92.45;100048.41;4225762;28;20285;-64
2023/04/07 05:02:33;;;;;;;90.53;37.77;;;;;;;5.18;92.43;100050.38;4226855;28;20307;-63
2023/04/07 05:05:00;;;;;;;77.70;35.30;;;;;;;5.20;93.18;100055.59;4229404;28;20258;-63
2023/04/07 05:07:26;;;;;;;79.97;35.97;;;;;;;5.33;93.13;100052.81;4240086;28;20230;-62
2023/04/07 05:09:53;;;;;;;88.67;38.97;;;;;;;5.34;92.70;100047.31;4233025;28;23424;-63
2023/04/07 05:12:20;;;;;;;86.93;36.30;;;;;;;5.31;92.79;100052.06;4231105;28;20236;-65
2023/04/07 05:14:47;;;;;;;83.40;36.70;;;;;;;5.32;92.63;100046.59;4219901;28;20250;-64
2023/04/07 05:17:13;;;;;;;93.93;37.93;;;;;;;5.28;92.98;100045.13;4241164;28;20234;-64
2023/04/07 05:19:40;;;;;;;84.93;37.87;;;;;;;5.42;92.71;100051.19;4231613;28;20556;-64
2023/04/07 05:22:06;;;;;;;85.27;37.37;;;;;;;5.42;93.02;100048.50;4237913;28;20235;-64
2023/04/07 05:24:33;;;;;;;89.23;37.73;;;;;;;5.39;92.89;100053.19;4228626;28;21683;-63
2023/04/07 05:27:00;;;;;;;94.07;37.20;;;;;;;5.40;92.87;100052.16;4240241;28;20453;-65
2023/04/07 05:29:27;;;;;;;87.73;38.37;;;;;;;5.47;92.92;100055.22;4244625;28;20236;-63
2023/04/07 05:31:54;;;;;;;87.40;37.10;;;;;;;5.46;92.79;100061.56;4252142;28;20232;-66
2023/04/07 05:34:21;;;;;;;88.40;39.30;;;;;;;5.61;92.87;100050.56;4239249;28;23818;-67
2023/04/07 05:36:47;;;;;;;82.23;38.33;;;;;;;5.50;92.58;100048.75;4249213;28;20234;-63
2023/04/07 05:39:14;;;;;;;88.87;38.70;;;;;;;5.52;92.59;100058.38;4228787;28;20228;-64
2023/04/07 05:41:41;;;;;;;87.83;38.43;;;;;;;5.64;92.50;100053.84;4232556;28;20254;-66
2023/04/07 05:44:07;;;;;;;85.63;37.53;;;;;;;5.68;92.58;100054.44;4233905;28;20381;-67
2023/04/07 05:46:34;;;;;;;87.73;38.13;;;;;;;5.72;92.50;100047.88;4235272;28;20704;-64
2023/04/07 05:49:01;;;;;;;84.97;37.10;;;;;;;5.71;92.55;100060.44;4238478;28;20931;-65
2023/04/07 05:51:45;;;;;;;81.27;36.40;;;;;;;5.73;92.37;100054.94;4235738;28;20273;-65
2023/04/07 05:54:14;;;;;;;83.77;36.33;;;;;;;5.79;92.46;100059.81;4219655;28;20541;-65
2023/04/07 05:56:41;;;;;;;80.50;36.10;;;;;;;5.79;92.35;100054.44;4236629;28;21311;-65
2023/04/07 05:59:08;;;;;;;85.47;36.87;;;;;;;5.85;92.20;100050.41;4245124;28;20260;-65
2023/04/07 06:01:35;;;;;;;80.00;35.33;;;;;;;5.81;92.28;100052.50;4249779;28;20285;-64
2023/04/07 06:04:04;;;;;;;83.73;38.27;;;;;;;5.85;92.29;100047.72;4227966;28;20234;-64
2023/04/07 06:06:31;;;;;;;83.80;37.20;;;;;;;5.86;92.30;100057.47;4228860;28;20234;-64
2023/04/07 06:08:58;;;;;;;78.47;36.40;;;;;;;5.95;92.23;100047.81;4234512;28;21070;-65
2023/04/07 06:11:26;;;;;;;76.90;36.27;;;;;;;5.95;92.08;100054.00;4233024;28;21616;-64
2023/04/07 06:13:53;;;;;;;77.37;35.07;;;;;;;5.95;92.05;100056.69;4222257;28;20300;-65
2023/04/07 06:16:19;;;;;;;72.03;34.80;;;;;;;5.95;92.34;100051.31;4236875;28;21733;-64
2023/04/07 06:18:46;;;;;;;70.03;33.37;;;;;;;6.00;92.01;100051.81;4245679;28;20298;-64
2023/04/07 06:21:13;;;;;;;75.03;34.47;;;;;;;5.91;92.09;100055.25;4225180;28;21804;-65
2023/04/07 06:23:40;;;;;;;75.43;34.97;;;;;;;5.97;92.17;100051.19;4209068;28;20239;-65
2023/04/07 06:26:10;;;;;;;68.00;33.90;;;;;;;6.05;92.18;100046.06;4245164;28;20598;-63
2023/04/07 06:28:37;;;;;;;77.37;34.80;;;;;;;5.91;92.24;100047.19;4260990;28;20300;-66
2023/04/07 06:31:05;;;;;;;69.17;34.20;;;;;;;6.00;92.33;100051.81;4235542;28;20314;-64
2023/04/07 06:33:31;;;;;;;71.40;34.07;;;;;;;6.06;92.09;100055.84;4242806;28;20244;-66
2023/04/07 06:35:58;;;;;;;69.40;35.13;;;;;;;6.02;92.20;100038.28;4245916;28;20483;-65
2023/04/07 06:38:25;;;;;;;72.47;35.97;;;;;;;6.07;92.21;100048.66;4257118;28;20676;-64
2023/04/07 06:40:52;;;;;;;75.30;35.30;;;;;;;6.11;92.14;100042.91;4246475;28;20246;-64
2023/04/07 06:43:18;;;;;;;68.97;33.50;;;;;;;6.23;92.09;100050.91;4245033;28;20233;-64
2023/04/07 06:45:45;;;;;;;77.13;35.30;;;;;;;6.16;92.02;100043.34;4228857;28;20268;-64
2023/04/07 06:48:12;;;;;;;66.87;34.23;;;;;;;6.18;91.86;100045.91;4229977;28;20339;-64
2023/04/07 06:50:39;;;;;;;68.40;32.90;;;;;;;6.25;91.95;100043.56;4216770;28;21443;-67
2023/04/07 06:53:05;;;;;;;66.83;33.10;;;;;;;6.25;91.63;100048.94;4255874;28;20275;-67
2023/04/07 06:55:32;;;;;;;68.43;33.50;;;;;;;6.37;91.62;100052.44;4226120;28;20239;-65
2023/04/07 06:57:58;;;;;;;65.80;33.20;;;;;;;6.41;91.90;100051.19;4213777;28;21471;-67
2023/04/07 07:00:28;;;;;;;65.87;33.77;;;;;;;6.46;91.45;100049.81;4242844;28;20247;-67
2023/04/07 07:02:56;;;;;;;70.00;33.37;;;;;;;6.43;91.34;100059.97;4233575;28;20232;-65
2023/04/07 07:05:23;;;;;;;67.07;33.33;;;;;;;6.55;91.09;100058.06;4246984;28;20234;-67
2023/04/07 07:07:50;;;;;;;60.33;32.60;;;;;;;6.60;91.10;100050.47;4255775;28;20317;-66
2023/04/07 07:10:19;;;;;;;67.20;34.63;;;;;;;6.68;91.15;100049.81;4230411;28;20247;-65
2023/04/07 07:12:46;;;;;;;63.53;32.03;;;;;;;6.70;91.26;100042.44;4238227;28;20303;-64
2023/04/07 07:15:12;;;;;;;70.13;34.03;;;;;;;6.77;90.86;100052.56;4239035;28;20235;-66
2023/04/07 07:17:39;;;;;;;71.13;32.23;;;;;;;6.75;90.65;100048.31;4223326;28;20232;-66
2023/04/07 07:20:06;;;;;;;68.77;31.47;;;;;;;6.69;91.21;100040.75;4219276;28;20773;-68
2023/04/07 07:22:33;;;;;;;58.30;29.93;;;;;;;6.85;91.57;100040.28;4227184;28;20240;-65
2023/04/07 07:25:00;;;;;;;61.77;31.57;;;;;;;6.91;91.17;100042.44;4247916;28;20239;-66
2023/04/07 07:27:26;;;;;;;66.50;31.97;;;;;;;6.88;90.33;100042.69;4257146;28;20249;-66
2023/04/07 07:29:53;;;;;;;61.57;31.83;;;;;;;6.91;90.70;100054.03;4220389;28;20457;-65
2023/04/07 07:32:20;;;;;;;57.40;30.23;;;;;;;6.89;91.18;100044.41;4240084;28;20330;-66
2023/04/07 07:34:46;;;;;;;64.17;31.97;;;;;;;6.87;91.16;100055.31;4228846;28;20235;-64
2023/04/07 07:37:13;;;;;;;54.37;29.13;;;;;;;6.91;90.95;100043.28;4248439;28;21867;-65
2023/04/07 07:39:40;;;;;;;57.40;29.70;;;;;;;7.02;91.13;100063.03;4229651;28;21116;-66
2023/04/07 07:42:06;;;;;;;56.47;29.77;;;;;;;7.21;90.39;100060.44;4243660;28;20240;-66
2023/04/07 07:44:33;;;;;;;54.80;29.33;;;;;;;7.10;90.63;100065.91;4232825;28;20236;-67
2023/04/07 07:47:00;;;;;;;57.97;29.43;;;;;;;7.14;90.92;100061.94;4231894;28;21320;-68
2023/04/07 07:49:27;;;;;;;55.53;29.97;;;;;;;7.04;90.42;100064.59;4218745;28;20299;-68
2023/04/07 07:51:53;;;;;;;52.40;27.53;;;;;;;6.98;90.73;100066.00;4231289;28;23894;-68
2023/04/07 07:54:20;;;;;;;51.37;28.73;;;;;;;7.25;90.38;100066.41;4235469;28;20234;-66
2023/04/07 07:56:47;;;;;;;52.47;27.73;;;;;;;7.11;90.57;100076.53;4248241;28;21674;-68
2023/04/07 07:59:14;;;;;;;51.00;27.53;;;;;;;7.16;90.80;100067.22;4222442;28;20246;-68
2023/04/07 08:01:43;;;;;;;53.00;28.33;;;;;;;7.23;90.68;100063.00;4250968;28;20227;-71
2023/04/07 08:04:10;;;;;;;50.27;27.57;;;;;;;7.21;90.74;100056.88;4228442;28;20239;-68
2023/04/07 08:06:37;;;;;;;56.97;28.90;;;;;;;7.18;91.10;100073.28;4244457;28;22423;-72
2023/04/07 08:09:05;;;;;;;60.70;28.47;;;;;;;7.21;90.40;100068.53;4272198;28;20234;-70
2023/04/07 08:11:31;;;;;;;52.17;28.87;;;;;;;7.27;90.69;100070.66;4231883;28;21049;-67
2023/04/07 08:13:58;;;;;;;50.80;27.67;;;;;;;7.28;89.96;100068.81;4213413;28;21135;-65
2023/04/07 08:16:25;;;;;;;51.93;27.47;;;;;;;7.17;90.31;100069.75;4205473;28;20238;-66
2023/04/07 08:18:52;;;;;;;54.30;27.43;;;;;;;7.14;90.83;100076.28;4211330;28;20249;-66
2023/04/07 08:21:19;;;;;;;51.07;27.87;;;;;;;7.26;90.72;100074.34;4234720;28;20319;-64
2023/04/07 08:23:46;;;;;;;50.77;27.20;;;;;;;7.23;91.07;100071.91;4215932;28;23330;-65
2023/04/07 08:26:13;;;;;;;53.27;27.53;;;;;;;7.36;91.16;100057.38;4237168;28;20236;-67
2023/04/07 08:28:40;;;;;;;57.07;28.73;;;;;;;7.55;90.80;100059.28;4221850;28;20598;-66
2023/04/07 08:31:07;;;;;;;51.53;27.93;;;;;;;7.69;91.10;100067.00;4219896;28;20688;-66
2023/04/07 08:33:33;;;;;;;48.70;26.23;;;;;;;7.97;90.27;100061.78;4214761;28;20234;-66
2023/04/07 08:36:00;;;;;;;46.53;26.17;;;;;;;7.95;89.51;100062.91;4219133;28;20320;-65
2023/04/07 08:38:26;;;;;;;45.10;24.53;;;;;;;8.04;89.56;100070.16;4231222;28;20293;-66
2023/04/07 08:41:07;;;;;;;46.10;25.43;;;;;;;8.20;89.25;100070.44;4237065;28;20344;-67
2023/04/07 08:43:38;;;;;;;48.43;25.03;;;;;;;8.08;88.90;100060.81;4229957;28;20240;-66
2023/04/07 08:46:05;;;;;;;48.03;24.67;;;;;;;8.09;89.67;100062.50;4237918;28;20238;-66
2023/04/07 08:48:33;;;;;;;40.37;22.13;;;;;;;8.18;89.71;100064.38;4257509;28;20265;-66
2023/04/07 08:51:07;;;;;;;42.27;22.70;;;;;;;8.37;89.18;100065.34;4229402;28;20242;-65
2023/04/07 08:53:43;;;;;;;37.27;21.77;;;;;;;8.36;88.60;100069.03;4218299;28;20238;-65
2023/04/07 08:56:13;;;;;;;43.17;21.17;;;;;;;8.14;88.97;100062.94;4239525;28;20239;-66
2023/04/07 08:58:40;;;;;;;34.33;21.07;;;;;;;8.11;89.06;100060.53;4231415;28;20266;-64
2023/04/07 09:01:08;;;;;;;41.07;21.10;;;;;;;8.20;89.04;100062.34;4239968;28;21107;-68
2023/04/07 09:03:35;;;;;;;38.93;19.90;;;;;;;8.20;88.87;100056.13;4219784;28;20234;-67
2023/04/07 09:06:03;;;;;;;34.87;19.97;;;;;;;8.37;88.47;100071.59;4225375;28;20262;-66
2023/04/07 09:08:30;;;;;;;38.57;21.17;;;;;;;8.24;88.18;100066.50;4225849;28;20241;-69
2023/04/07 09:10:57;;;;;;;41.57;22.70;;;;;;;8.19;89.08;100065.19;4220841;28;21796;-68
2023/04/07 09:13:24;;;;;;;39.33;21.23;;;;;;;8.30;88.37;100067.78;4252124;28;20308;-68
2023/04/07 09:15:50;;;;;;;38.93;22.93;;;;;;;8.27;89.03;100056.41;4182055;28;20452;-65
2023/04/07 09:18:18;;;;;;;41.63;22.13;;;;;;;8.30;88.56;100064.22;4232632;28;20311;-66
2023/04/07 09:20:55;;;;;;;39.77;22.10;;;;;;;8.42;88.56;100065.78;4238318;28;20250;-67
2023/04/07 09:23:36;;;;;;;42.83;22.67;;;;;;;8.45;88.26;100059.25;4253203;28;20623;-64
2023/04/07 09:26:26;;;;;;;43.47;22.73;;;;;;;8.49;88.75;100066.09;4254252;28;25176;-65
2023/04/07 09:28:54;;;;;;;48.17;22.73;;;;;;;8.48;87.80;100061.69;4264692;28;20329;-70
2023/04/07 09:31:22;;;;;;;41.07;22.47;;;;;;;8.38;88.58;100054.41;4222182;28;21090;-67
2023/04/07 09:33:49;;;;;;;40.50;23.00;;;;;;;8.45;88.43;100054.69;4249390;28;20236;-69
2023/04/07 09:36:16;;;;;;;37.90;22.60;;;;;;;8.47;88.34;100057.28;4245377;28;25939;-71
2023/04/07 09:38:44;;;;;;;40.30;21.40;;;;;;;8.59;88.75;100066.06;4218460;28;20284;-70
2023/04/07 09:41:13;;;;;;;37.77;21.70;;;;;;;8.66;88.23;100054.56;4228221;28;20525;-67
2023/04/07 09:43:43;;;;;;;36.60;22.27;;;;;;;8.55;88.07;100060.09;4225747;28;20239;-65
2023/04/07 09:46:15;;;;;;;38.07;22.03;;;;;;;8.65;88.49;100060.09;4229853;28;22945;-65
2023/04/07 09:48:43;;;;;;;36.00;20.00;;;;;;;8.75;88.04;100054.69;4235230;28;20229;-65
2023/04/07 09:51:11;;;;;;;35.87;20.83;;;;;;;8.71;88.20;100052.28;4251014;28;20240;-65
2023/04/07 09:53:44;;;;;;;36.37;19.93;;;;;;;8.70;88.46;100055.13;4235118;28;20240;-65
2023/04/07 09:56:11;;;;;;;41.63;21.03;;;;;;;8.90;88.32;100046.97;4264692;28;20405;-64
2023/04/07 09:58:39;;;;;;;43.07;21.70;;;;;;;8.90;87.98;100046.97;4219572;28;20324;-64
2023/04/07 10:01:08;;;;;;;38.70;21.60;;;;;;;8.94;87.79;100049.25;4233611;28;21260;-63
2023/04/07 10:03:35;;;;;;;38.17;21.63;;;;;;;9.00;87.67;100053.22;4227816;28;21179;-64
2023/04/07 10:06:05;;;;;;;35.50;21.67;;;;;;;9.20;88.23;100059.41;4227681;28;21139;-62
2023/04/07 10:08:34;;;;;;;42.90;22.80;;;;;;;9.26;87.63;100057.94;4244198;28;21589;-62
2023/04/07 10:11:02;;;;;;;34.57;21.50;;;;;;;9.39;87.47;100058.47;4214327;28;20239;-65
2023/04/07 10:13:31;;;;;;;37.43;20.67;;;;;;;9.36;87.24;100061.47;4235814;28;22389;-64
2023/04/07 10:15:58;;;;;;;35.23;20.87;;;;;;;9.38;87.55;100062.16;4227968;28;20289;-64
2023/04/07 10:18:30;;;;;;;38.63;21.40;;;;;;;9.26;87.35;100053.41;4235375;28;20231;-62
2023/04/07 10:21:00;;;;;;;35.13;22.07;;;;;;;9.39;87.81;100061.19;4235323;28;20264;-64
2023/04/07 10:23:56;;;;;;;49.80;23.23;;;;;;;9.81;87.54;100063.34;4228883;28;20242;-65
2023/04/07 10:26:26;;;;;;;38.57;20.80;;;;;;;10.01;86.91;100065.91;4222168;28;20237;-64
2023/04/07 10:28:59;;;;;;;35.97;20.53;;;;;;;10.04;85.53;100065.63;4213395;28;20306;-66
2023/04/07 10:31:26;;;;;;;35.57;20.40;;;;;;;9.85;85.67;100063.91;4220218;28;20239;-65
2023/04/07 10:33:53;;;;;;;34.80;20.33;;;;;;;9.86;86.41;100067.47;4212009;28;22221;-63
2023/04/07 10:36:20;;;;;;;31.10;18.90;;;;;;;9.94;86.11;100075.66;4229738;28;20415;-65
2023/04/07 10:39:10;;;;;;;30.30;18.93;;;;;;;9.90;85.75;100072.41;4219507;28;20236;-62
2023/04/07 10:41:40;;;;;;;26.53;16.83;;;;;;;9.79;85.71;100075.31;4238294;28;20286;-65
2023/04/07 10:44:08;;;;;;;34.20;17.57;;;;;;;9.82;85.80;100078.59;4233305;28;20239;-65
2023/04/07 10:46:55;;;;;;;32.67;16.83;;;;;;;9.82;85.54;100075.00;4228959;28;20223;-65
2023/04/07 10:49:22;;;;;;;30.97;17.63;;;;;;;9.77;85.87;100080.91;4226165;28;20920;-64
2023/04/07 10:52:10;;;;;;;35.93;18.50;;;;;;;9.83;85.66;100083.00;4233315;28;20245;-63
2023/04/07 10:54:41;;;;;;;29.10;18.07;;;;;;;9.81;86.18;100078.75;4238175;28;20235;-65
2023/04/07 10:57:11;;;;;;;33.33;17.07;;;;;;;9.97;85.53;100081.59;4241467;28;20231;-66
2023/04/07 11:00:01;;;;;;;30.40;16.83;;;;;;;10.17;84.83;100080.63;4234782;28;20290;-64
2023/04/07 11:02:31;;;;;;;29.13;15.90;;;;;;;10.23;84.04;100094.38;4236880;28;20242;-66
2023/04/07 11:04:58;;;;;;;28.70;16.47;;;;;;;10.21;83.97;100082.88;4224014;28;20233;-66
2023/04/07 11:07:43;;;;;;;29.20;16.73;;;;;;;10.13;84.11;100080.94;4232401;28;25522;-65
2023/04/07 11:10:14;;;;;;;29.50;16.27;;;;;;;10.29;83.43;100082.13;4226430;28;20338;-64
2023/04/07 11:12:42;;;;;;;29.23;14.93;;;;;;;10.29;83.10;100082.13;4217717;28;21784;-65
2023/04/07 11:15:20;;;;;;;23.83;14.70;;;;;;;10.45;82.96;100082.31;4244296;28;20235;-67
2023/04/07 11:18:06;;;;;;;25.40;14.97;;;;;;;10.67;82.46;100090.06;4258183;28;20308;-65
2023/04/07 11:20:45;;;;;;;29.47;14.97;;;;;;;10.62;81.66;100077.88;4224202;28;20234;-65
2023/04/07 11:23:15;;;;;;;25.30;14.30;;;;;;;10.93;80.70;100084.69;4241639;28;21794;-64